This is the latest recevied weather packets stored in our database for station/object K4AGR-13. If no packets are shown the sender has not sent any weather packets the latest 10 day(s).
| Time | Temp. | Humidity | Pressure | Rain* | Wind** | Luminosity | Snow |
|---|---|---|---|---|---|---|---|
| 1777479872 | 28.33° C | 57% | 1015.8 hPa | 0 mm | - | 835 W/m² | - |
| 1777479569 | 27.78° C | 58% | 1015.7 hPa | 0 mm | - | 988 W/m² | - |
| 1777479267 | 27.78° C | 60% | 1015.6 hPa | 0 mm | - | 620 W/m² | - |
| 1777478963 | 27.22° C | 60% | 1015.7 hPa | 0 mm | - | 949 W/m² | - |
| 1777478660 | 27.78° C | 59% | 1016 hPa | 0 mm | - | 944 W/m² | - |
| 1777478356 | 27.78° C | 59% | 1016.1 hPa | 0 mm | - | 960 W/m² | - |
| 1777478053 | 27.22° C | 61% | 1016 hPa | 0 mm | - | 924 W/m² | - |
| 1777477749 | 27.78° C | 58% | 1016.2 hPa | 0 mm | - | 974 W/m² | - |
| 1777477445 | 27.22° C | 61% | 1016.2 hPa | 0 mm | - | 961 W/m² | - |
| 1777477142 | 27.78° C | 61% | 1016.2 hPa | 0 mm | - | 962 W/m² | - |
| 1777476838 | 27.78° C | 62% | 1016.6 hPa | 0 mm | - | 938 W/m² | - |
| 1777476536 | 26.67° C | 64% | 1016.8 hPa | 0 mm | - | 884 W/m² | - |
| 1777476232 | 25.56° C | 67% | 1016.8 hPa | 0 mm | - | 815 W/m² | - |
| 1777475928 | 26.11° C | 67% | 1017 hPa | 0 mm | - | 325 W/m² | - |
| 1777475624 | 26.11° C | 65% | 1016.9 hPa | 0 mm | - | 386 W/m² | - |
| 1777475321 | 25.56° C | 67% | 1017 hPa | 0 mm | - | 413 W/m² | - |
| 1777475016 | 26.11° C | 66% | 1017 hPa | 0 mm | - | 382 W/m² | - |
| 1777474713 | 26.11° C | 67% | 1017 hPa | 0 mm | - | 322 W/m² | - |
| 1777474409 | 25.56° C | 68% | 1017 hPa | 0 mm | - | 397 W/m² | - |
| 1777474105 | 25.56° C | 70% | 1017 hPa | 0 mm | - | 325 W/m² | - |
| 1777473804 | 25° C | 70% | 1016.9 hPa | 0 mm | - | 789 W/m² | - |
| 1777473500 | 24.44° C | 73% | 1016.8 hPa | 0 mm | - | 811 W/m² | - |
| 1777473195 | 23.89° C | 75% | 1017.1 hPa | 0 mm | - | 335 W/m² | - |
| 1777472892 | 23.89° C | 74% | 1017.1 hPa | 0 mm | - | 222 W/m² | - |
| 1777472589 | 23.89° C | 73% | 1017.2 hPa | 0 mm | - | 263 W/m² | - |
* Rain latest hour (hover to see other rain measurements)
** Current wind speed in m/s (hover to see current wind gust speed)